createdAt,value
2023-04-09T00:00:41.297Z,10.60
2023-04-09T00:03:28.517Z,10.60
2023-04-09T00:06:16.431Z,10.50
2023-04-09T00:09:03.989Z,10.60
2023-04-09T00:11:51.530Z,10.60
2023-04-09T00:14:38.831Z,10.60
2023-04-09T00:17:26.178Z,10.50
2023-04-09T00:20:13.498Z,10.50
2023-04-09T00:23:02.308Z,10.50
2023-04-09T00:25:49.494Z,10.50
2023-04-09T00:28:37.477Z,10.50
2023-04-09T00:31:24.809Z,10.50
2023-04-09T00:34:12.280Z,10.50
2023-04-09T00:37:00.608Z,10.50
2023-04-09T00:39:47.745Z,10.60
2023-04-09T00:42:37.524Z,10.50
2023-04-09T00:45:24.707Z,10.40
2023-04-09T00:48:14.256Z,10.30
2023-04-09T00:51:01.820Z,10.30
2023-04-09T00:53:49.465Z,10.20
2023-04-09T00:56:40.899Z,10.30
2023-04-09T00:59:28.480Z,10.20
2023-04-09T01:02:18.644Z,10.30
2023-04-09T01:05:06.933Z,10.30
2023-04-09T01:08:06.514Z,10.30
2023-04-09T01:10:59.850Z,10.30
2023-04-09T01:13:50.156Z,10.30
2023-04-09T01:16:38.602Z,10.40
2023-04-09T01:19:43.992Z,10.40
2023-04-09T01:22:53.819Z,10.40
2023-04-09T01:26:01.720Z,10.50
2023-04-09T01:28:52.617Z,10.40
2023-04-09T01:31:43.249Z,10.20
2023-04-09T01:34:32.238Z,10.10
2023-04-09T01:37:21.189Z,10.10
2023-04-09T01:40:10.705Z,10.20
2023-04-09T01:42:59.106Z,10.20
2023-04-09T01:45:47.482Z,10.20
2023-04-09T01:48:35.587Z,10.20
2023-04-09T01:51:23.350Z,10.20
2023-04-09T01:54:10.900Z,10.20
2023-04-09T01:56:59.374Z,10.20
2023-04-09T01:59:46.974Z,10.20
2023-04-09T02:02:40.291Z,10.20
2023-04-09T02:05:30.984Z,10.20
2023-04-09T02:08:21.535Z,10.10
2023-04-09T02:11:10.700Z,10.00
2023-04-09T02:13:58.890Z,10.00
2023-04-09T02:16:46.792Z,9.80
2023-04-09T02:19:48.148Z,9.70
2023-04-09T02:22:35.344Z,9.60
2023-04-09T02:25:24.336Z,9.60
2023-04-09T02:28:11.958Z,9.50
2023-04-09T02:30:59.239Z,9.40
2023-04-09T02:33:46.630Z,9.30
2023-04-09T02:36:33.948Z,9.20
2023-04-09T02:39:21.385Z,9.10
2023-04-09T02:42:08.834Z,8.90
2023-04-09T02:44:56.515Z,8.70
2023-04-09T02:47:43.922Z,8.40
2023-04-09T02:50:31.249Z,8.30
2023-04-09T02:53:18.811Z,8.10
2023-04-09T02:56:06.557Z,7.90
2023-04-09T02:58:54.296Z,7.80
2023-04-09T03:01:41.976Z,7.60
2023-04-09T03:04:29.428Z,7.50
2023-04-09T03:07:16.781Z,7.40
2023-04-09T03:10:04.356Z,7.30
2023-04-09T03:12:51.621Z,7.10
2023-04-09T03:15:38.897Z,7.00
2023-04-09T03:18:26.294Z,6.70
2023-04-09T03:21:14.965Z,6.60
2023-04-09T03:24:02.260Z,6.70
2023-04-09T03:26:49.777Z,6.70
2023-04-09T03:29:37.590Z,6.70
2023-04-09T03:32:24.797Z,6.70
2023-04-09T03:35:12.338Z,6.60
2023-04-09T03:38:00.165Z,6.50
2023-04-09T03:40:47.900Z,6.40
2023-04-09T03:43:35.099Z,6.30
2023-04-09T03:46:22.715Z,6.20
2023-04-09T03:49:10.084Z,6.10
2023-04-09T03:51:57.412Z,6.20
2023-04-09T03:54:45.868Z,6.20
2023-04-09T03:57:33.481Z,6.20
2023-04-09T04:00:21.032Z,6.10
2023-04-09T04:03:08.492Z,5.90
2023-04-09T04:05:57.356Z,5.80
2023-04-09T04:08:44.664Z,5.70
2023-04-09T04:11:31.902Z,5.60
2023-04-09T04:14:19.262Z,5.60
2023-04-09T04:17:06.734Z,5.60
2023-04-09T04:19:54.447Z,5.60
2023-04-09T04:22:42.044Z,5.50
2023-04-09T04:25:30.527Z,5.50
2023-04-09T04:28:17.992Z,5.50
2023-04-09T04:31:13.092Z,5.50
2023-04-09T04:34:00.516Z,5.40
2023-04-09T04:36:48.056Z,5.40
2023-04-09T04:39:35.601Z,5.50
2023-04-09T04:42:23.144Z,5.50
2023-04-09T04:45:11.135Z,5.50
2023-04-09T04:47:58.744Z,5.40
2023-04-09T04:50:46.539Z,5.30
2023-04-09T04:53:33.824Z,5.30
2023-04-09T04:56:21.368Z,5.40
2023-04-09T04:59:08.584Z,5.40
2023-04-09T05:01:56.159Z,5.40
2023-04-09T05:04:43.882Z,5.40
2023-04-09T05:07:31.110Z,5.40
2023-04-09T05:10:18.651Z,5.40
2023-04-09T05:13:06.299Z,5.40
2023-04-09T05:15:53.833Z,5.40
2023-04-09T05:18:41.252Z,5.40
2023-04-09T05:21:28.843Z,5.40
2023-04-09T05:24:16.126Z,5.30
2023-04-09T05:27:03.678Z,5.40
2023-04-09T05:29:51.050Z,5.40
2023-04-09T05:32:38.973Z,5.40
2023-04-09T05:35:26.628Z,5.50
2023-04-09T05:38:16.858Z,5.60
2023-04-09T05:41:04.580Z,5.60
2023-04-09T05:43:52.107Z,5.60
2023-04-09T05:46:39.985Z,5.60
2023-04-09T05:49:27.327Z,5.60
2023-04-09T05:52:17.228Z,5.60
2023-04-09T05:55:06.503Z,5.60
2023-04-09T05:57:54.422Z,5.60
2023-04-09T06:00:42.036Z,5.70
2023-04-09T06:03:29.691Z,5.70
2023-04-09T06:06:19.137Z,5.90
2023-04-09T06:09:06.543Z,6.10
2023-04-09T06:11:54.300Z,6.30
2023-04-09T06:14:41.521Z,6.50
2023-04-09T06:17:30.309Z,6.60
2023-04-09T06:20:18.045Z,6.70
2023-04-09T06:23:05.644Z,6.80
2023-04-09T06:25:53.238Z,7.00
2023-04-09T06:28:40.912Z,7.20
2023-04-09T06:31:28.006Z,7.40
2023-04-09T06:34:15.810Z,7.60
2023-04-09T06:37:03.629Z,7.80
2023-04-09T06:40:00.590Z,7.90
2023-04-09T06:42:40.070Z,8.10
2023-04-09T06:45:30.221Z,8.30
2023-04-09T06:48:17.544Z,8.30
2023-04-09T06:51:05.495Z,8.50
2023-04-09T06:53:53.284Z,8.60
2023-04-09T06:56:41.118Z,8.90
2023-04-09T06:59:28.921Z,9.10
2023-04-09T07:02:16.761Z,9.50
2023-04-09T07:05:04.923Z,9.70
2023-04-09T07:07:52.329Z,9.90
2023-04-09T07:10:39.932Z,10.00
2023-04-09T07:16:18.970Z,10.40
2023-04-09T07:19:07.502Z,10.60
2023-04-09T07:21:57.356Z,10.80
2023-04-09T07:24:44.422Z,10.90
2023-04-09T07:27:31.885Z,10.90
2023-04-09T07:30:19.498Z,11.10
2023-04-09T07:33:07.142Z,11.30
2023-04-09T07:35:55.533Z,11.10
2023-04-09T07:38:46.974Z,11.10
2023-04-09T07:41:34.508Z,11.10
2023-04-09T07:44:22.153Z,11.40
2023-04-09T07:47:12.804Z,11.50
2023-04-09T07:50:00.153Z,11.50
2023-04-09T07:52:47.496Z,11.80
2023-04-09T07:55:34.587Z,11.90
2023-04-09T07:58:22.209Z,11.90
2023-04-09T08:01:10.238Z,12.10
2023-04-09T08:03:57.753Z,12.00
2023-04-09T08:06:47.452Z,12.20
2023-04-09T08:09:34.984Z,12.00
2023-04-09T08:12:22.254Z,11.90
2023-04-09T08:15:09.838Z,11.80
2023-04-09T08:17:57.657Z,12.20
2023-04-09T08:20:45.594Z,12.50
2023-04-09T08:23:32.975Z,12.80
2023-04-09T08:26:20.707Z,13.20
2023-04-09T08:29:09.591Z,12.90
2023-04-09T08:31:57.245Z,12.80
2023-04-09T08:34:44.355Z,13.00
2023-04-09T08:37:32.406Z,12.90
2023-04-09T08:40:19.795Z,13.30
2023-04-09T08:43:08.983Z,13.70
2023-04-09T08:45:57.902Z,14.00
2023-04-09T08:48:49.420Z,14.10
2023-04-09T08:51:36.603Z,14.10
2023-04-09T08:54:25.905Z,14.30
2023-04-09T08:57:13.474Z,14.40
2023-04-09T09:00:01.423Z,14.60
2023-04-09T09:03:07.096Z,14.80
2023-04-09T09:05:54.550Z,14.90
2023-04-09T09:08:42.086Z,15.00
2023-04-09T09:11:30.353Z,15.10
2023-04-09T09:14:20.196Z,15.20
2023-04-09T09:17:08.448Z,15.20
2023-04-09T09:19:57.044Z,15.10
2023-04-09T09:22:54.726Z,15.50
2023-04-09T09:25:44.241Z,15.70
2023-04-09T09:28:35.714Z,15.90
2023-04-09T09:31:23.920Z,15.90
2023-04-09T09:34:11.521Z,16.00
2023-04-09T09:36:58.838Z,16.10
2023-04-09T09:39:46.438Z,16.10
2023-04-09T09:42:34.123Z,16.20
2023-04-09T09:45:21.257Z,16.30
2023-04-09T09:48:10.780Z,16.40
2023-04-09T09:50:57.974Z,16.50
2023-04-09T09:53:48.357Z,16.70
2023-04-09T09:56:42.015Z,16.70
2023-04-09T09:59:32.598Z,16.90
2023-04-09T10:02:21.883Z,16.90
2023-04-09T10:05:10.541Z,17.00
2023-04-09T10:08:01.080Z,17.10
2023-04-09T10:10:49.167Z,17.20
2023-04-09T10:13:41.302Z,17.20
2023-04-09T10:16:28.908Z,17.20
2023-04-09T10:19:16.954Z,17.20
2023-04-09T10:22:10.379Z,17.10
2023-04-09T10:24:59.858Z,17.00
2023-04-09T10:27:48.510Z,16.80
2023-04-09T10:30:37.641Z,17.00
2023-04-09T10:33:28.186Z,17.40
2023-04-09T10:36:16.846Z,17.70
2023-04-09T10:39:09.366Z,17.70
2023-04-09T10:41:58.826Z,17.50
2023-04-09T10:44:46.649Z,17.40
2023-04-09T10:47:36.544Z,17.60
2023-04-09T10:50:29.347Z,17.50
2023-04-09T10:53:24.884Z,16.90
2023-04-09T10:56:20.350Z,16.70
2023-04-09T10:59:07.821Z,16.60
2023-04-09T11:01:55.313Z,16.70
2023-04-09T11:04:49.211Z,16.40
2023-04-09T11:07:39.401Z,16.70
2023-04-09T11:10:26.784Z,17.00
2023-04-09T11:13:15.400Z,17.10
2023-04-09T11:16:04.718Z,17.20
2023-04-09T11:18:53.510Z,17.30
2023-04-09T11:21:46.355Z,17.50
2023-04-09T11:24:43.910Z,17.40
2023-04-09T11:27:31.424Z,17.40
2023-04-09T11:30:18.772Z,17.40
2023-04-09T11:33:08.565Z,17.20
2023-04-09T11:35:57.035Z,17.40
2023-04-09T11:38:44.492Z,17.50
2023-04-09T11:41:40.218Z,17.60
2023-04-09T11:44:27.942Z,16.60
2023-04-09T11:47:17.275Z,16.50
2023-04-09T11:50:05.185Z,16.30
2023-04-09T11:52:52.846Z,16.80
2023-04-09T11:55:40.380Z,16.80
2023-04-09T11:58:28.188Z,17.10
2023-04-09T12:01:16.352Z,16.80
2023-04-09T12:04:03.873Z,16.70
2023-04-09T12:06:51.897Z,16.80
2023-04-09T12:09:47.867Z,16.80
2023-04-09T12:12:43.651Z,16.90
2023-04-09T12:15:36.994Z,16.70
2023-04-09T12:18:24.491Z,17.20
2023-04-09T12:21:12.798Z,17.60
2023-04-09T12:24:00.507Z,17.80
2023-04-09T12:26:48.811Z,18.00
2023-04-09T12:29:36.053Z,18.30
2023-04-09T12:32:23.714Z,18.60
2023-04-09T12:35:11.289Z,18.90
2023-04-09T12:37:59.343Z,18.90
2023-04-09T12:40:46.650Z,18.70
2023-04-09T12:43:34.017Z,18.60
2023-04-09T12:46:21.555Z,18.50
2023-04-09T12:49:09.063Z,18.30
2023-04-09T12:51:56.536Z,18.40
2023-04-09T12:54:45.318Z,18.30
2023-04-09T12:57:33.067Z,18.30
2023-04-09T13:00:20.287Z,18.30
2023-04-09T13:03:08.175Z,18.40
2023-04-09T13:05:56.563Z,18.40
2023-04-09T13:08:44.204Z,18.60
2023-04-09T13:11:31.763Z,18.50
2023-04-09T13:14:19.321Z,18.50
2023-04-09T13:17:09.499Z,18.70
2023-04-09T13:19:56.057Z,18.60
2023-04-09T13:22:45.031Z,18.50
2023-04-09T13:25:32.183Z,18.40
2023-04-09T13:28:19.907Z,18.60
2023-04-09T13:31:07.344Z,18.50
2023-04-09T13:33:54.685Z,18.50
2023-04-09T13:36:42.256Z,18.90
2023-04-09T13:39:29.506Z,18.80
2023-04-09T13:42:17.046Z,18.70
2023-04-09T13:45:05.469Z,18.40
2023-04-09T13:47:52.958Z,18.40
2023-04-09T13:50:40.422Z,18.50
2023-04-09T13:53:27.962Z,18.40
2023-04-09T13:56:15.717Z,18.30
2023-04-09T13:59:03.051Z,17.80
2023-04-09T14:01:51.039Z,17.20
2023-04-09T14:04:38.770Z,17.20
2023-04-09T14:07:26.416Z,17.30
2023-04-09T14:10:13.801Z,17.60
2023-04-09T14:13:01.998Z,18.00
2023-04-09T14:15:50.002Z,18.40
2023-04-09T14:18:37.356Z,18.50
2023-04-09T14:21:26.762Z,18.20
2023-04-09T14:24:13.776Z,18.40
2023-04-09T14:27:02.750Z,18.80
2023-04-09T14:29:51.309Z,18.80
2023-04-09T14:32:38.894Z,18.70
2023-04-09T14:35:26.729Z,18.60
2023-04-09T14:38:14.309Z,19.30
2023-04-09T14:41:01.898Z,19.70
2023-04-09T14:43:49.442Z,19.70
2023-04-09T14:46:37.374Z,19.70
2023-04-09T14:49:24.900Z,19.70
2023-04-09T14:52:12.322Z,19.80
2023-04-09T14:55:00.340Z,19.70
2023-04-09T14:57:47.612Z,19.70
2023-04-09T15:00:36.077Z,19.90
2023-04-09T15:03:23.827Z,20.10
2023-04-09T15:06:13.834Z,20.30
2023-04-09T15:09:01.678Z,20.40
2023-04-09T15:11:49.001Z,20.40
2023-04-09T15:14:36.543Z,20.50
2023-04-09T15:17:24.899Z,20.70
2023-04-09T15:20:13.944Z,20.70
2023-04-09T15:23:01.556Z,20.30
2023-04-09T15:25:48.821Z,19.90
2023-04-09T15:28:36.044Z,19.60
2023-04-09T15:31:23.563Z,19.70
2023-04-09T15:34:11.247Z,19.80
2023-04-09T15:36:58.908Z,19.90
2023-04-09T15:39:46.382Z,19.90
2023-04-09T15:42:33.904Z,19.70
2023-04-09T15:45:21.172Z,19.60
2023-04-09T15:48:10.402Z,19.30
2023-04-09T15:50:57.720Z,19.50
2023-04-09T15:53:45.136Z,19.50
2023-04-09T15:56:33.165Z,19.60
2023-04-09T15:59:20.513Z,19.70
2023-04-09T16:02:08.024Z,20.10
2023-04-09T16:04:55.660Z,20.20
2023-04-09T16:07:43.677Z,20.40
2023-04-09T16:10:31.945Z,20.80
2023-04-09T16:13:19.116Z,21.10
2023-04-09T16:16:07.539Z,20.90
2023-04-09T16:18:55.032Z,21.00
2023-04-09T16:21:44.157Z,21.10
2023-04-09T16:24:32.252Z,21.40
2023-04-09T16:27:19.961Z,21.70
2023-04-09T16:30:08.174Z,21.80
2023-04-09T16:32:55.746Z,21.60
2023-04-09T16:35:43.296Z,21.20
2023-04-09T16:38:31.087Z,20.80
2023-04-09T16:41:18.749Z,20.30
2023-04-09T16:44:06.642Z,19.90
2023-04-09T16:46:53.952Z,19.50
2023-04-09T16:49:40.968Z,19.10
2023-04-09T16:52:29.322Z,18.80
2023-04-09T16:55:17.186Z,18.50
2023-04-09T16:58:04.743Z,18.30
2023-04-09T17:00:52.364Z,18.10
2023-04-09T17:03:43.095Z,17.90
2023-04-09T17:06:30.389Z,17.70
2023-04-09T17:09:19.703Z,17.60
2023-04-09T17:12:07.047Z,17.40
2023-04-09T17:14:55.626Z,17.20
2023-04-09T17:17:44.756Z,17.00
2023-04-09T17:20:32.076Z,16.90
2023-04-09T17:23:21.739Z,16.70
2023-04-09T17:26:08.820Z,16.60
2023-04-09T17:28:56.180Z,16.60
2023-04-09T17:31:43.591Z,16.50
2023-04-09T17:34:32.358Z,16.30
2023-04-09T17:37:20.131Z,16.20
2023-04-09T17:40:09.926Z,16.10
2023-04-09T17:42:57.352Z,15.90
2023-04-09T17:45:44.545Z,15.80
2023-04-09T17:48:32.290Z,15.60
2023-04-09T17:51:20.675Z,15.40
2023-04-09T17:54:07.959Z,15.20
2023-04-09T17:56:56.856Z,15.10
2023-04-09T17:59:44.635Z,14.80
2023-04-09T18:02:33.256Z,14.50
2023-04-09T18:05:24.402Z,14.30
2023-04-09T18:08:13.133Z,14.20
2023-04-09T18:11:12.086Z,13.90
2023-04-09T18:13:52.036Z,13.60
2023-04-09T18:16:40.065Z,13.10
2023-04-09T18:19:27.433Z,12.70
2023-04-09T18:22:14.890Z,12.50
2023-04-09T18:25:02.476Z,12.30
2023-04-09T18:27:49.888Z,12.10
2023-04-09T18:30:38.729Z,11.80
2023-04-09T18:33:27.161Z,11.50
2023-04-09T18:36:14.680Z,11.20
2023-04-09T18:39:04.951Z,11.00
2023-04-09T18:41:52.196Z,10.90
2023-04-09T18:44:40.535Z,10.70
2023-04-09T18:47:27.895Z,10.50
2023-04-09T18:50:18.791Z,10.40
2023-04-09T18:53:07.075Z,10.30
2023-04-09T18:55:54.821Z,10.20
2023-04-09T18:58:42.326Z,10.00
2023-04-09T19:01:29.740Z,10.00
2023-04-09T19:04:17.739Z,10.00
2023-04-09T19:07:04.984Z,10.00
2023-04-09T19:09:52.310Z,9.90
2023-04-09T19:12:41.648Z,9.70
2023-04-09T19:15:29.500Z,9.60
2023-04-09T19:18:18.669Z,9.40
2023-04-09T19:21:08.159Z,9.20
2023-04-09T19:23:55.544Z,9.00
2023-04-09T19:26:42.850Z,8.90
2023-04-09T19:29:30.454Z,8.80
2023-04-09T19:32:17.929Z,8.80
2023-04-09T19:35:05.643Z,8.80
2023-04-09T19:37:53.154Z,8.70
2023-04-09T19:40:40.920Z,8.70
2023-04-09T19:43:28.117Z,8.60
2023-04-09T19:46:15.658Z,8.60
2023-04-09T19:49:03.020Z,8.50
2023-04-09T19:51:50.956Z,8.40
2023-04-09T19:54:38.444Z,8.30
2023-04-09T19:57:26.437Z,8.20
2023-04-09T20:00:15.937Z,8.10
2023-04-09T20:03:04.989Z,8.10
2023-04-09T20:05:53.335Z,7.90
2023-04-09T20:08:40.811Z,7.90
2023-04-09T20:11:28.518Z,7.80
2023-04-09T20:14:15.992Z,7.80
2023-04-09T20:17:03.386Z,7.80
2023-04-09T20:19:50.922Z,7.70
2023-04-09T20:22:40.000Z,7.60
2023-04-09T20:25:29.132Z,7.50
2023-04-09T20:28:16.240Z,7.50
2023-04-09T20:31:07.619Z,7.50
2023-04-09T20:33:55.237Z,7.40
2023-04-09T20:36:43.764Z,7.30
2023-04-09T20:39:31.527Z,7.30
2023-04-09T20:42:18.980Z,7.20
2023-04-09T20:45:06.675Z,7.10
2023-04-09T20:47:54.110Z,7.10
2023-04-09T20:50:42.172Z,7.10
2023-04-09T20:53:29.188Z,7.00
2023-04-09T20:56:17.397Z,7.10
2023-04-09T20:59:04.910Z,7.00
2023-04-09T21:01:53.920Z,7.00
2023-04-09T21:04:41.207Z,7.00
2023-04-09T21:07:28.538Z,6.90
2023-04-09T21:10:16.292Z,7.00
2023-04-09T21:13:03.444Z,7.00
2023-04-09T21:15:51.226Z,7.00
2023-04-09T21:18:38.698Z,7.00
2023-04-09T21:21:27.828Z,7.00
2023-04-09T21:24:16.039Z,7.00
2023-04-09T21:27:05.328Z,6.90
2023-04-09T21:29:53.538Z,6.90
2023-04-09T21:32:41.193Z,6.90
2023-04-09T21:35:28.937Z,6.80
2023-04-09T21:38:16.462Z,6.80
2023-04-09T21:41:04.178Z,6.90
2023-04-09T21:43:51.766Z,7.00
2023-04-09T21:46:40.820Z,7.00
2023-04-09T21:49:28.058Z,7.00
2023-04-09T21:52:15.491Z,6.90
2023-04-09T21:55:03.326Z,6.80
2023-04-09T21:57:52.569Z,6.70
2023-04-09T22:00:39.954Z,6.70
2023-04-09T22:03:27.651Z,6.70
2023-04-09T22:06:16.744Z,6.60
2023-04-09T22:09:04.854Z,6.60
2023-04-09T22:11:53.514Z,6.50
2023-04-09T22:14:41.949Z,6.50
2023-04-09T22:17:29.548Z,6.60
2023-04-09T22:20:17.180Z,6.50
2023-04-09T22:23:04.773Z,6.40
2023-04-09T22:25:53.729Z,6.30
2023-04-09T22:28:41.000Z,6.30
2023-04-09T22:31:28.681Z,6.40
2023-04-09T22:34:21.286Z,6.40
2023-04-09T22:37:04.965Z,6.50
2023-04-09T22:39:52.343Z,6.40
2023-04-09T22:42:41.086Z,6.20
2023-04-09T22:45:29.848Z,6.20
2023-04-09T22:48:17.076Z,6.00
2023-04-09T22:51:04.618Z,6.00
2023-04-09T22:53:52.145Z,6.00
2023-04-09T22:56:39.644Z,6.00
2023-04-09T22:59:39.086Z,6.10
2023-04-09T23:02:16.121Z,6.10
2023-04-09T23:05:03.593Z,6.10
2023-04-09T23:07:51.125Z,6.20
2023-04-09T23:10:38.956Z,6.20
2023-04-09T23:13:26.455Z,6.20
2023-04-09T23:16:15.409Z,6.10
2023-04-09T23:19:03.116Z,6.00
2023-04-09T23:21:50.347Z,6.00
2023-04-09T23:24:38.025Z,5.90
2023-04-09T23:27:27.256Z,5.80
2023-04-09T23:30:18.107Z,5.80
2023-04-09T23:33:05.453Z,5.90
2023-04-09T23:35:53.193Z,5.80
2023-04-09T23:38:42.137Z,5.70
2023-04-09T23:41:29.374Z,5.70
2023-04-09T23:44:16.656Z,5.70
2023-04-09T23:47:05.846Z,5.80
2023-04-09T23:49:53.047Z,5.80
2023-04-09T23:52:40.506Z,5.70
2023-04-09T23:55:28.038Z,5.60
2023-04-09T23:58:15.399Z,5.60
